AirNav  
 
airports navaids fix Aviation Fuel airboss pilotshop
 461 users online  

T17 New Gulf Airport
New Gulf, Texas, USA


FAA INFORMATION EFFECTIVE 08 APRIL 2010

Location

FAA Identifier: T17
Lat/Long: 29-16-34.0000N / 095-53-19.0000W
29-16.566667N / 095-53.316667W
29.2761111 / -95.8886111
(estimated)
Elevation: 100 ft. / 30 m (estimated)
From city: 2 miles E of NEW GULF, TX
Time zone: UTC -5 (UTC -6 during Standard Time)
Zip code: 77420

Airport Operations

Airport use: Open to the public
Activation date: 08/2003
Sectional chart: HOUSTON
Control tower: no
ARTCC: HOUSTON CENTER
FSS: MONTGOMERY COUNTY FLIGHT SERVICE STATION
NOTAMs facility: CXO (NOTAM-D service available)
Attendance: UNATNDD
Segmented circle: no

Airport Communications

CTAF: 122.9
WX AWOS-3 at ARM (14 nm W): 118.475 (979-532-2791)
WX AWOS-3 at BYY (18 nm S): 118.075 (979-323-1801)

Nearby radio navigation aids

VOR radial/distance  VOR name  Freq  Var
ELAr128/32.2EAGLE LAKE VOR/DME116.4008E
PSXr028/37.7PALACIOS VORTAC117.3008E
HUBr230/39.2HOBBY VOR/DME117.1005E

 
NDB name  Hdg/Dist  Freq  Var  ID
WHARTON079/13.824506EARM .- .-. --
BAY CITY349/18.334406EBYY -... -.-- -.--
HULL205/24.638805ESGR ... --. .-.

Airport Services

Runway Information

Runway 15/33

Dimensions: 4300 x 75 ft. / 1311 x 23 m
Surface: asphalt, in poor condition
RY HAS LOOSE AGGREGATE, CRACKING & UNEVEN PATCHES.
Runway edge markings: NO RY NR. RY MARKINGS 4 INCHES WIDE, NSTD SPACING, DO NOT EXTEND FULL RY LENGTH & CNTRLN OFFSET APPROXLY 12 FT ON RY END.
RUNWAY 15  RUNWAY 33
Latitude: 29-16.873833N29-16.259333N
Longitude: 095-53.519000W095-53.114333W
Elevation: 100.0 ft.100.0 ft.
Traffic pattern: leftleft
Runway heading: 150 true330 true
Markings: NSTD, in poor conditionNSTD, in poor condition
Obstructions: 12 ft. tree, 220 ft. from runway, 33 ft. left of centerline, 1:1 slope to clear
5 FT FENCE ON CNTRLN 98 FT FM THLD, ROAD ON RY EXTENDING BYD THLD.
27 ft. pline, 336 ft. from runway, 62 ft. left of centerline, 5:1 slope to clear
5 FT FENCE PARALLEL TO RY 40 FT FM CNTRLN EXTENDING 117 FT FM THLD.

Airport Ownership and Management from official FAA records

Ownership: Privately-owned
Owner: H & L NEW GULF
132 AVE G
NEW GULF, TX 77462
Phone 979-429-6955
Manager: BOB JACKSON
HANGAR 1
NEW GULF, TX 77462
Phone 979-429-6955

Airport Operational Statistics

Aircraft operations: 100/year *
100% transient general aviation
* for 12-month period ending 18 September 2008

Additional Remarks

LIVESTOCK ON FIELD AND VEHICULAR TRAFFIC ON RY.

Instrument Procedures

There are no published instrument procedures at T17.

Some nearby airports with instrument procedures:

KARM - Wharton Regional Airport (14 nm W)
KBYY - Bay City Municipal Airport (18 nm S)
KSGR - Sugar Land Regional Airport (24 nm NE)
KLBX - Brazoria County Airport (24 nm SE)
KAXH - Houston Southwest Airport (26 nm NE)
 
Loc | Ops | Rwys | IFR | FBO | Links
Com | Nav | Svcs | Stats | Notes

Million Air Los Angeles
 
Area around T17 (New Gulf Airport)
 
Road maps at: MapQuest MapPoint Yahoo! Maps Google Rand McNally
Satellite photo at: TerraServer Virtual Earth

 
Aerial photo
WARNING: Photo may not be current or correct
Aerial photo of T17 (New Gulf Airport)
Taken in September 2007

Do you have a better or more recent aerial photo of New Gulf Airport that you would like to share? If so, please send us your photo.

 
Sectional chart

 
Airport distance calculator
Flying to New Gulf Airport? Find the distance to fly.

From to T17

Sunrise and sunset
Times for 19-Apr-2010
 Local
(UTC-5)
 Zulu
(UTC)
Morning civil twilight06:3011:30
Sunrise06:5411:54
Sunset19:5100:51
Evening civil twilight20:1601:16

Current date and time
Zulu (UTC)  19-Apr-2010 11:00:06
Local (UTC-5)  19-Apr-2010 06:00:06
 
METAR
KARM 
14nm W 
191045Z AUTO 32004KT 10SM CLR 16/15 A2998 RMK AO2 T01580146
KBYY 
18nm S 
191046Z AUTO 32005KT 10SM OVC009 17/17 A2996 RMK AO2 T01730170
KSGR 
24nm NE 
191053Z AUTO 34003KT SCT017 BKN024 OVC030 17/16 A2996 RMK AO2 SLP154 T01720161 TSNO $
KLBX 
24nm SE 
191053Z AUTO A2996 RMK AO2 SLP147 PWINO FZRANO $
KAXH 
26nm NE 
191044Z AUTO 00000KT 7SM OVC016 18/17 A2996 RMK AO2 T01790172
TAF
KSGR 
24nm NE 
190901Z 1909/2006 35003KT 6SM BR SCT022 BKN040 OVC045 TEMPO 1910/1913 4SM BR OVC015 FM191600 35007KT P6SM OVC025 FM192200 36007KT P6SM SCT010 BKN035 FM200200 36005KT P6SM BKN025
KLBX 
24nm SE 
190528Z 1906/2006 VRB04KT P6SM VCSH BKN015 TEMPO 1906/1908 5SM -RA BR FM190800 35005KT 5SM BR OVC010 FM191200 35007KT 3SM BR OVC007 FM191600 35006KT P6SM OVC012 FM192200 03007KT P6SM SCT010 BKN035 FM200200 VRB03KT P6SM BKN025
NOTAMs
Click for the latest NOTAMs
NOTAMs are issued by the DoD/FAA and will open in a separate window not controlled by AirNav.

 

 
 

Would you like to see your business listed on this page?

 If your business provides an interesting product or service to pilots, flight crews, aircraft, or users of the New Gulf Airport, you should consider listing it here.  To start the listing process, click on the button below
 
Add a business
 

Other Pages about New Gulf Airport

Update a link
 
Copyright © AirNav, LLC. All rights reserved. Privacy Policy  Contact